Time;durP1;ratioP1;P1;durP2;ratioP2;P2;SDS_P1;SDS_P2;PMS_P1;PMS_P2;Temp;Humidity;BMP_temperature;BMP_pressure;BME280_temperature;BME280_humidity;BME280_pressure;Samples;Min_cycle;Max_cycle;Signal;HPM_P1;HPM_P2
2022/10/21 00:02:09;;;;;;;17.65;11.48;;;;;;;14.59;98.69;100733.28;6187748;23;20044;-85
2022/10/21 00:04:35;;;;;;;14.45;9.55;;;;;;;14.61;98.55;100731.53;6161094;23;20416;-85
2022/10/21 00:07:00;;;;;;;14.82;11.32;;;;;;;14.56;98.38;100718.25;6161040;23;20005;-85
2022/10/21 00:09:26;;;;;;;15.55;11.48;;;;;;;14.56;98.53;100715.59;6136147;23;20013;-85
2022/10/21 00:11:51;;;;;;;17.92;11.40;;;;;;;14.61;98.80;100712.91;6160686;23;20052;-86
2022/10/21 00:14:19;;;;;;;18.75;10.35;;;;;;;14.63;98.44;100717.31;6187292;23;20064;-85
2022/10/21 00:16:45;;;;;;;19.23;10.40;;;;;;;14.63;98.14;100711.09;6187139;23;20012;-85
2022/10/21 00:19:10;;;;;;;17.85;11.20;;;;;;;14.63;98.03;100725.28;6187245;23;20498;-85
2022/10/21 00:21:36;;;;;;;14.68;9.38;;;;;;;14.61;97.53;100721.75;6187237;23;20016;-85
2022/10/21 00:24:02;;;;;;;18.95;10.93;;;;;;;14.59;97.94;100720.00;6161909;23;20005;-85
2022/10/21 00:26:27;;;;;;;21.20;11.10;;;;;;;14.60;98.11;100722.63;6161550;23;20312;-85
2022/10/21 00:28:56;;;;;;;15.35;10.77;;;;;;;14.57;98.11;100716.47;6160936;23;20013;-85
2022/10/21 00:31:23;;;;;;;21.05;11.02;;;;;;;14.51;97.99;100693.47;6187197;23;20035;-85
2022/10/21 00:33:48;;;;;;;22.80;12.05;;;;;;;14.56;98.18;100702.31;6168860;23;20013;-85
2022/10/21 00:36:14;;;;;;;19.58;11.95;;;;;;;14.56;98.38;100694.34;6160799;23;20049;-85
2022/10/21 00:38:41;;;;;;;22.65;11.73;;;;;;;14.58;98.31;100703.16;6210503;23;20008;-85
2022/10/21 00:41:07;;;;;;;16.52;11.45;;;;;;;14.58;98.30;100700.50;6160961;23;20056;-85
2022/10/21 00:43:52;;;;;;;20.58;11.60;;;;;;;14.59;98.50;100696.06;6160594;23;20443;-84
2022/10/21 00:46:28;;;;;;;17.67;11.35;;;;;;;14.52;98.16;100704.09;6187732;23;20072;-84
2022/10/21 00:48:57;;;;;;;23.90;10.85;;;;;;;14.50;98.26;100710.31;6186723;23;20005;-84
2022/10/21 00:51:23;;;;;;;15.82;10.98;;;;;;;14.49;98.61;100708.56;6187036;23;20009;-85
2022/10/21 00:53:50;;;;;;;19.23;11.75;;;;;;;14.47;98.63;100711.19;6210305;23;20436;-85
2022/10/21 00:56:20;;;;;;;18.77;10.90;;;;;;;14.46;98.71;100701.44;6186718;23;20016;-85
2022/10/21 00:58:50;;;;;;;16.02;11.05;;;;;;;14.47;99.10;100703.22;6186798;23;20332;-85
2022/10/21 01:01:17;;;;;;;19.92;11.10;;;;;;;14.46;99.19;100693.47;6185691;23;20052;-84
2022/10/21 01:03:42;;;;;;;19.05;11.15;;;;;;;14.45;99.18;100697.03;6185225;23;20013;-84
2022/10/21 01:06:10;;;;;;;20.02;11.38;;;;;;;14.43;99.62;100684.63;6161085;23;20498;-85
2022/10/21 01:08:37;;;;;;;19.25;11.48;;;;;;;14.45;99.97;100682.84;6185237;23;20009;-85
2022/10/21 01:11:04;;;;;;;18.77;11.55;;;;;;;14.47;100.00;100683.69;6185358;23;20423;-85
2022/10/21 01:13:44;;;;;;;18.77;11.43;;;;;;;14.48;100.00;100677.53;6185246;23;20005;-85
2022/10/21 01:16:14;;;;;;;20.05;11.45;;;;;;;14.47;99.87;100673.97;6186862;23;20060;-85
2022/10/21 01:19:18;;;;;;;16.77;11.20;;;;;;;14.45;99.96;100666.91;6210607;23;20016;-85
2022/10/21 01:21:52;;;;;;;17.23;11.35;;;;;;;14.45;99.75;100670.44;6209546;23;20112;-84
2022/10/21 01:24:49;;;;;;;16.00;9.15;;;;;;;14.43;99.31;100666.00;6186683;23;20009;-85
2022/10/21 01:27:40;;;;;;;16.15;10.23;;;;;;;14.41;99.51;100650.09;6185427;23;20020;-84
2022/10/21 01:30:38;;;;;;;15.02;10.48;;;;;;;14.41;99.41;100649.22;6184733;23;20005;-85
2022/10/21 01:33:37;;;;;;;19.30;11.20;;;;;;;14.35;99.17;100646.63;6185258;23;20021;-86
2022/10/21 01:36:20;;;;;;;15.20;10.25;;;;;;;14.31;99.63;100642.22;6185654;23;20017;-86
2022/10/21 01:39:10;;;;;;;15.57;10.77;;;;;;;14.30;99.89;100649.28;6186215;23;20051;-85
2022/10/21 01:41:46;;;;;;;15.85;10.68;;;;;;;14.24;99.70;100636.03;6184945;23;20008;-85
2022/10/21 01:44:33;;;;;;;20.25;11.25;;;;;;;14.24;99.86;100634.28;6185986;23;20009;-85
2022/10/21 01:47:11;;;;;;;14.85;10.15;;;;;;;14.23;99.82;100623.66;6185040;23;20012;-85
2022/10/21 01:49:49;;;;;;;17.02;10.45;;;;;;;14.25;100.00;100633.38;6161119;23;20312;-85
2022/10/21 01:52:16;;;;;;;17.65;10.30;;;;;;;14.22;99.54;100619.25;6186532;23;20072;-85
2022/10/21 01:54:52;;;;;;;16.25;11.00;;;;;;;14.19;99.70;100620.13;6160331;23;20053;-85
2022/10/21 01:57:21;;;;;;;16.75;10.05;;;;;;;14.18;99.68;100622.81;6186490;23;20005;-84
2022/10/21 01:59:48;;;;;;;15.57;10.50;;;;;;;14.15;99.33;100623.72;6184812;23;20009;-85
2022/10/21 02:02:15;;;;;;;17.67;10.75;;;;;;;14.08;99.28;100610.47;6186133;23;20084;-84
2022/10/21 02:04:43;;;;;;;20.60;10.77;;;;;;;14.07;99.79;100606.06;6184552;23;20527;-85
2022/10/21 02:07:09;;;;;;;20.80;11.40;;;;;;;14.04;100.00;100606.97;6160418;23;20008;-84
2022/10/21 02:09:35;;;;;;;17.02;10.70;;;;;;;14.01;99.78;100602.56;6160386;23;20009;-85
2022/10/21 02:12:03;;;;;;;18.10;10.85;;;;;;;14.01;99.96;100607.00;6184851;23;20454;-84
2022/10/21 02:14:37;;;;;;;21.73;10.32;;;;;;;13.93;99.34;100606.16;6185352;23;20027;-84
2022/10/21 02:17:03;;;;;;;21.67;10.75;;;;;;;13.93;100.00;100587.56;6185949;23;20001;-84
2022/10/21 02:19:30;;;;;;;17.10;10.60;;;;;;;13.92;99.52;100601.75;6186328;23;20017;-84
2022/10/21 02:21:59;;;;;;;15.90;11.32;;;;;;;13.96;99.77;100587.53;6185798;23;20016;-84
2022/10/21 02:24:37;;;;;;;17.80;10.85;;;;;;;13.96;100.00;100585.78;6186664;23;20006;-84
2022/10/21 02:27:03;;;;;;;18.02;11.13;;;;;;;13.96;100.00;100584.88;6186320;23;20009;-85
2022/10/21 02:29:34;;;;;;;21.02;11.15;;;;;;;13.88;99.67;100576.97;6186455;23;20009;-85
2022/10/21 02:32:27;;;;;;;20.63;10.40;;;;;;;13.90;99.86;100584.94;6161048;23;20088;-84
2022/10/21 02:35:30;;;;;;;17.50;10.15;;;;;;;13.90;99.65;100598.22;6186724;23;20444;-85
2022/10/21 02:38:09;;;;;;;14.13;9.85;;;;;;;13.84;99.38;100598.28;6182266;23;20009;-85
2022/10/21 02:40:49;;;;;;;15.60;10.45;;;;;;;13.82;99.52;100603.56;6188943;23;20009;-85
2022/10/21 02:43:23;;;;;;;14.77;9.93;;;;;;;13.81;99.66;100599.16;6191745;23;20005;-85
2022/10/21 02:45:53;;;;;;;20.90;10.43;;;;;;;13.78;100.00;100592.06;6190182;23;20005;-85
2022/10/21 02:48:19;;;;;;;18.63;10.00;;;;;;;13.80;100.00;100599.19;6186734;23;20400;-85
2022/10/21 02:50:44;;;;;;;18.77;10.80;;;;;;;13.78;100.00;100601.81;6186754;23;20036;-85
2022/10/21 02:53:12;;;;;;;18.05;9.85;;;;;;;13.73;99.79;100587.69;6186762;23;20009;-85
2022/10/21 02:55:37;;;;;;;17.90;10.20;;;;;;;13.75;99.97;100581.50;6160531;23;20323;-86
2022/10/21 02:58:04;;;;;;;15.82;10.50;;;;;;;13.77;100.00;100581.47;6186221;23;20032;-85
2022/10/21 03:00:31;;;;;;;17.33;10.80;;;;;;;13.78;100.00;100576.16;6160424;23;20423;-85
2022/10/21 03:02:57;;;;;;;18.98;10.85;;;;;;;13.77;100.00;100576.16;6184963;23;20017;-85
2022/10/21 03:05:22;;;;;;;14.57;9.70;;;;;;;13.74;99.52;100569.09;6185268;23;20024;-85
2022/10/21 03:07:52;;;;;;;22.70;9.48;;;;;;;13.71;99.44;100574.44;6159897;23;20020;-85
2022/10/21 03:10:20;;;;;;;16.60;9.75;;;;;;;13.67;99.75;100575.34;6186816;23;20005;-84
2022/10/21 03:12:48;;;;;;;15.82;9.82;;;;;;;13.66;99.55;100578.00;6186339;23;20005;-85
2022/10/21 03:15:13;;;;;;;15.02;9.38;;;;;;;13.68;99.41;100576.22;6185887;23;20013;-85
2022/10/21 03:17:39;;;;;;;14.57;9.48;;;;;;;13.62;99.54;100569.19;6185893;23;20009;-85
2022/10/21 03:20:04;;;;;;;14.27;9.25;;;;;;;13.63;99.44;100570.06;6161566;23;20015;-85
2022/10/21 03:22:31;;;;;;;15.88;9.38;;;;;;;13.57;98.58;100565.66;6161917;23;20068;-85
2022/10/21 03:24:57;;;;;;;13.35;9.70;;;;;;;13.52;99.49;100562.16;6188039;23;20005;-85
2022/10/21 03:27:22;;;;;;;14.35;9.13;;;;;;;13.56;99.22;100578.94;6188406;23;20016;-85
2022/10/21 03:29:48;;;;;;;13.15;9.02;;;;;;;13.49;99.33;100572.81;6137358;23;20028;-85
2022/10/21 03:32:13;;;;;;;16.40;9.40;;;;;;;13.46;99.62;100579.00;6187633;23;20020;-85
2022/10/21 03:34:38;;;;;;;15.10;8.82;;;;;;;13.46;99.43;100578.13;6180523;23;20084;-85
2022/10/21 03:37:04;;;;;;;16.60;8.85;;;;;;;13.41;99.73;100571.97;6186053;23;20043;-85
2022/10/21 03:39:29;;;;;;;13.10;9.00;;;;;;;13.39;99.30;100579.03;6188032;23;20060;-85
2022/10/21 03:41:54;;;;;;;14.13;8.75;;;;;;;13.35;99.18;100566.69;6188867;23;20001;-85
2022/10/21 03:44:20;;;;;;;14.90;8.45;;;;;;;13.40;99.78;100578.16;6186978;23;20005;-85
2022/10/21 03:46:45;;;;;;;15.25;8.85;;;;;;;13.34;100.00;100571.09;6187644;23;20009;-86
2022/10/21 03:49:10;;;;;;;17.35;8.95;;;;;;;13.37;100.00;100575.53;6187146;23;20013;-85
2022/10/21 03:51:36;;;;;;;14.48;7.95;;;;;;;13.34;99.83;100568.44;6188857;23;20428;-85
2022/10/21 03:54:01;;;;;;;15.80;8.20;;;;;;;13.33;99.56;100574.66;6188578;23;20009;-85
2022/10/21 03:56:27;;;;;;;14.07;7.90;;;;;;;13.29;100.00;100575.56;6188992;23;20016;-85
2022/10/21 03:58:52;;;;;;;11.82;7.75;;;;;;;13.28;100.00;100568.50;6191547;23;20168;-84
2022/10/21 04:01:21;;;;;;;10.15;7.13;;;;;;;13.29;100.00;100564.94;6167877;23;20080;-84
2022/10/21 04:03:46;;;;;;;14.02;6.90;;;;;;;13.30;99.86;100561.41;6190494;23;20016;-85
2022/10/21 04:06:11;;;;;;;12.25;7.07;;;;;;;13.29;99.72;100564.94;6187567;23;20005;-85
2022/10/21 04:08:37;;;;;;;11.50;7.32;;;;;;;13.25;99.96;100568.50;6188118;23;20013;-85
2022/10/21 04:11:02;;;;;;;12.15;6.72;;;;;;;13.22;99.68;100558.78;6190948;23;20044;-85
2022/10/21 04:13:29;;;;;;;11.48;6.97;;;;;;;13.23;99.65;100565.88;6191522;23;20435;-85
2022/10/21 04:16:04;;;;;;;15.43;7.80;;;;;;;13.21;99.87;100566.72;6192050;23;20005;-85
2022/10/21 04:18:30;;;;;;;12.57;7.68;;;;;;;13.19;100.00;100563.16;6191742;23;20451;-85
2022/10/21 04:20:55;;;;;;;12.82;7.13;;;;;;;13.18;99.37;100561.41;6191822;23;20005;-85
2022/10/21 04:23:21;;;;;;;11.88;7.70;;;;;;;13.14;100.00;100557.88;6193936;23;20016;-85
2022/10/21 04:25:47;;;;;;;13.77;7.32;;;;;;;13.19;100.00;100564.09;6195931;23;20005;-85
2022/10/21 04:28:12;;;;;;;12.45;7.60;;;;;;;13.26;99.83;100564.94;6201745;23;20001;-85
2022/10/21 04:30:37;;;;;;;10.27;7.18;;;;;;;13.27;99.47;100561.41;6234903;23;20009;-84
2022/10/21 04:33:03;;;;;;;13.63;7.25;;;;;;;13.27;99.67;100562.31;6212364;23;20013;-84
2022/10/21 04:35:28;;;;;;;13.90;7.68;;;;;;;13.24;99.64;100566.75;6206061;23;20013;-84
2022/10/21 04:37:54;;;;;;;12.73;6.72;;;;;;;13.18;99.76;100580.88;6195055;23;20077;-85
2022/10/21 04:40:19;;;;;;;14.30;7.47;;;;;;;13.11;100.00;100578.28;6163480;23;19993;-86
2022/10/21 04:42:51;;;;;;;13.20;7.43;;;;;;;13.04;100.00;100577.41;6213768;23;20026;-85
2022/10/21 04:45:19;;;;;;;10.65;6.93;;;;;;;13.00;100.00;100576.53;6187740;23;20031;-87
2022/10/21 04:47:44;;;;;;;14.90;7.30;;;;;;;12.96;100.00;100577.41;6188395;23;19993;-85
2022/10/21 04:50:10;;;;;;;12.52;7.20;;;;;;;12.94;100.00;100584.50;6213733;23;20035;-85
2022/10/21 04:52:36;;;;;;;9.95;6.72;;;;;;;12.94;100.00;100588.94;6163747;23;19989;-85
2022/10/21 04:55:02;;;;;;;13.00;6.57;;;;;;;12.91;100.00;100579.19;6188220;23;20040;-86
2022/10/21 04:57:27;;;;;;;15.85;6.80;;;;;;;12.93;100.00;100574.78;6186973;23;19997;-85
2022/10/21 04:59:53;;;;;;;11.05;6.82;;;;;;;12.92;100.00;100567.69;6185986;23;20005;-85
2022/10/21 05:02:21;;;;;;;11.48;6.47;;;;;;;12.92;100.00;100569.47;6210978;23;20012;-85
2022/10/21 05:04:50;;;;;;;15.07;6.68;;;;;;;12.92;100.00;100573.00;6207544;23;20013;-85
2022/10/21 05:07:15;;;;;;;10.32;5.93;;;;;;;12.91;100.00;100568.59;6206511;23;20012;-84
2022/10/21 05:09:40;;;;;;;14.40;6.50;;;;;;;12.90;100.00;100568.63;6202519;23;20001;-84
2022/10/21 05:12:06;;;;;;;12.38;5.00;;;;;;;12.90;100.00;100565.97;6174712;23;20009;-85
2022/10/21 05:14:31;;;;;;;10.88;6.07;;;;;;;12.86;99.95;100566.84;6192462;23;20013;-85
2022/10/21 05:16:56;;;;;;;10.27;5.40;;;;;;;12.92;99.95;100569.47;6189242;23;20013;-85
2022/10/21 05:19:23;;;;;;;13.98;5.97;;;;;;;12.92;100.00;100570.34;6164081;23;20012;-86
2022/10/21 05:21:48;;;;;;;11.57;6.10;;;;;;;12.90;99.98;100553.59;6190932;23;20001;-85
2022/10/21 05:24:15;;;;;;;8.70;5.35;;;;;;;12.93;99.51;100563.28;6142752;23;20016;-84
2022/10/21 05:26:41;;;;;;;8.10;5.43;;;;;;;12.95;99.21;100549.13;6166510;23;20008;-85
2022/10/21 05:29:06;;;;;;;12.65;5.65;;;;;;;12.98;99.46;100551.78;6193653;23;20036;-85
2022/10/21 05:31:33;;;;;;;8.45;5.70;;;;;;;12.98;99.68;100541.19;6170887;23;20009;-85
2022/10/21 05:33:58;;;;;;;11.75;5.90;;;;;;;13.01;99.51;100551.75;6199567;23;20040;-86
2022/10/21 05:36:23;;;;;;;8.77;5.38;;;;;;;12.97;98.91;100546.47;6177589;23;20008;-85
2022/10/21 05:38:49;;;;;;;9.77;4.97;;;;;;;13.02;98.58;100545.59;6175910;23;20005;-84
2022/10/21 05:41:15;;;;;;;7.63;5.13;;;;;;;13.00;98.77;100541.16;6174009;23;20100;-85
2022/10/21 05:43:41;;;;;;;9.20;5.63;;;;;;;13.03;98.46;100541.16;6195002;23;20015;-85
2022/10/21 05:46:07;;;;;;;10.93;5.25;;;;;;;13.01;98.44;100527.00;6190164;23;20080;-85
2022/10/21 05:48:36;;;;;;;11.25;5.57;;;;;;;13.02;98.13;100527.00;6169288;23;20009;-85
2022/10/21 05:51:02;;;;;;;11.20;5.30;;;;;;;12.94;97.73;100523.50;6169823;23;20061;-84
2022/10/21 05:53:27;;;;;;;11.68;5.57;;;;;;;12.98;97.98;100522.63;6195212;23;20009;-85
2022/10/21 05:56:03;;;;;;;11.23;5.28;;;;;;;12.96;98.19;100528.78;6168343;23;20530;-85
2022/10/21 05:58:30;;;;;;;9.85;5.88;;;;;;;12.86;98.85;100511.16;6193112;23;20037;-85
2022/10/21 06:00:57;;;;;;;10.18;5.75;;;;;;;12.89;98.75;100514.69;6194273;23;20009;-85
2022/10/21 06:03:30;;;;;;;14.35;5.43;;;;;;;12.94;98.53;100531.47;6192274;23;20009;-85
2022/10/21 06:06:01;;;;;;;8.25;4.80;;;;;;;12.89;98.08;100520.00;6169193;23;20290;-85
2022/10/21 06:08:29;;;;;;;9.55;5.60;;;;;;;12.92;98.26;100529.69;6192363;23;20013;-86
2022/10/21 06:11:10;;;;;;;17.30;5.65;;;;;;;12.95;98.42;100521.75;6166892;23;20032;-85
2022/10/21 06:13:36;;;;;;;8.52;5.70;;;;;;;12.94;98.42;100520.84;6165147;23;20001;-85
2022/10/21 06:16:02;;;;;;;10.30;5.10;;;;;;;13.00;97.67;100527.91;6165002;23;20009;-85
2022/10/21 06:18:28;;;;;;;10.55;4.90;;;;;;;12.96;97.51;100527.03;6164824;23;20005;-85
2022/10/21 06:20:53;;;;;;;9.23;5.05;;;;;;;12.96;97.73;100531.44;6189954;23;20031;-86
2022/10/21 06:23:19;;;;;;;9.45;4.97;;;;;;;12.81;97.86;100512.97;6163571;23;20068;-84
2022/10/21 06:25:59;;;;;;;11.52;5.45;;;;;;;12.94;98.05;100525.28;6190225;23;20060;-84
2022/10/21 06:28:26;;;;;;;6.53;4.50;;;;;;;12.96;97.50;100531.44;6191778;23;20005;-84
2022/10/21 06:30:51;;;;;;;10.90;5.22;;;;;;;12.94;97.30;100523.50;6165864;23;20032;-84
2022/10/21 06:33:20;;;;;;;8.35;5.03;;;;;;;12.98;97.63;100524.38;6187382;23;20013;-84
2022/10/21 06:35:46;;;;;;;13.32;5.57;;;;;;;12.97;97.45;100531.44;6162907;23;20102;-85
2022/10/21 06:38:11;;;;;;;8.35;5.68;;;;;;;12.98;97.80;100527.03;6187104;23;20001;-85
2022/10/21 06:40:37;;;;;;;8.68;5.30;;;;;;;12.98;97.59;100527.03;6187131;23;20013;-86
2022/10/21 06:43:05;;;;;;;10.00;5.03;;;;;;;12.97;97.33;100535.84;6184716;23;20009;-86
2022/10/21 06:45:30;;;;;;;11.13;5.30;;;;;;;12.98;97.41;100540.31;6186055;23;20013;-86
2022/10/21 06:47:56;;;;;;;9.57;5.13;;;;;;;12.98;97.60;100545.59;6160245;23;20036;-85
2022/10/21 06:50:21;;;;;;;8.15;5.30;;;;;;;12.97;97.83;100552.66;6185605;23;20020;-85
2022/10/21 06:52:49;;;;;;;9.93;4.78;;;;;;;12.94;97.51;100551.81;6187956;23;20034;-85
2022/10/21 06:55:16;;;;;;;15.25;5.25;;;;;;;12.98;97.94;100564.16;6188565;23;20009;-85
2022/10/21 06:57:41;;;;;;;9.05;4.70;;;;;;;13.01;98.17;100567.66;6162231;23;20009;-84
2022/10/21 07:00:07;;;;;;;6.88;4.28;;;;;;;13.01;97.65;100567.66;6162536;23;20486;-85
2022/10/21 07:02:33;;;;;;;10.63;4.75;;;;;;;13.04;98.20;100572.97;6188519;23;20097;-85
2022/10/21 07:05:01;;;;;;;8.18;4.55;;;;;;;13.04;97.89;100574.75;6161860;23;20391;-85
2022/10/21 07:07:27;;;;;;;10.75;4.88;;;;;;;13.11;98.01;100587.09;6188109;23;20092;-85
2022/10/21 07:09:56;;;;;;;8.43;4.10;;;;;;;13.14;98.06;100592.38;6137002;23;20387;-85
2022/10/21 07:12:22;;;;;;;12.68;4.30;;;;;;;13.17;97.93;100594.16;6188036;23;20013;-85
2022/10/21 07:14:51;;;;;;;6.28;4.40;;;;;;;13.13;98.40;100587.97;6161959;23;20512;-85
2022/10/21 07:17:17;;;;;;;12.35;4.43;;;;;;;13.20;98.28;100600.31;6137532;23;20043;-85
2022/10/21 07:19:44;;;;;;;9.48;4.72;;;;;;;13.26;98.45;100602.97;6136757;23;20009;-85
2022/10/21 07:22:10;;;;;;;11.63;4.40;;;;;;;13.28;98.73;100592.38;6187586;23;20009;-85
2022/10/21 07:24:35;;;;;;;8.20;4.60;;;;;;;13.33;98.94;100601.19;6161637;23;20490;-85
2022/10/21 07:27:01;;;;;;;7.55;4.45;;;;;;;13.38;98.82;100599.41;6161543;23;20391;-85
2022/10/21 07:29:26;;;;;;;11.73;5.03;;;;;;;13.43;99.00;100599.38;6161608;23;20032;-84
2022/10/21 07:31:52;;;;;;;9.68;4.53;;;;;;;13.43;99.10;100602.03;6161490;23;20040;-85
2022/10/21 07:34:20;;;;;;;7.95;4.68;;;;;;;13.46;98.93;100599.38;6187888;23;20013;-85
2022/10/21 07:36:51;;;;;;;10.07;4.93;;;;;;;13.51;98.85;100603.75;6186601;23;20041;-85
2022/10/21 07:39:22;;;;;;;11.93;5.13;;;;;;;13.53;98.87;100604.63;6188467;23;20005;-85
2022/10/21 07:41:53;;;;;;;12.48;5.00;;;;;;;13.60;98.83;100612.56;6161679;23;20051;-85
2022/10/21 07:44:21;;;;;;;8.85;4.38;;;;;;;13.61;98.25;100606.34;6187640;23;20001;-84
2022/10/21 07:46:51;;;;;;;8.88;5.05;;;;;;;13.68;98.52;100611.63;6186871;23;20005;-85
2022/10/21 07:49:21;;;;;;;10.60;4.90;;;;;;;13.71;98.27;100613.41;6162928;23;20009;-85
2022/10/21 07:51:50;;;;;;;12.68;6.00;;;;;;;13.74;98.55;100621.31;6161189;23;20047;-84
2022/10/21 07:54:18;;;;;;;10.65;5.65;;;;;;;13.73;98.47;100620.44;6186868;23;20386;-84
2022/10/21 07:56:50;;;;;;;11.68;5.85;;;;;;;13.77;98.76;100630.16;6187467;23;20009;-85
2022/10/21 07:59:18;;;;;;;9.97;6.10;;;;;;;13.79;98.50;100622.19;6187600;23;20412;-85
2022/10/21 08:01:44;;;;;;;11.38;6.30;;;;;;;13.79;98.29;100622.19;6161331;23;20102;-85
2022/10/21 08:04:12;;;;;;;13.23;6.03;;;;;;;13.80;98.83;100613.34;6187448;23;20036;-85
2022/10/21 08:06:38;;;;;;;11.80;6.60;;;;;;;13.85;98.95;100623.94;6187467;23;20005;-86
2022/10/21 08:09:04;;;;;;;14.45;6.28;;;;;;;13.87;99.45;100623.00;6187443;23;20020;-85
2022/10/21 08:11:32;;;;;;;12.80;6.25;;;;;;;13.90;98.95;100627.44;6161283;23;20012;-85
2022/10/21 08:13:58;;;;;;;12.88;6.30;;;;;;;13.90;99.02;100615.03;6161025;23;20024;-84
2022/10/21 08:16:25;;;;;;;12.93;6.53;;;;;;;13.85;98.68;100598.25;6187256;23;20009;-84
2022/10/21 08:18:51;;;;;;;11.60;6.28;;;;;;;13.94;98.73;100607.94;6187237;23;20012;-85
2022/10/21 08:21:16;;;;;;;12.05;6.72;;;;;;;13.96;98.72;100604.38;6187357;23;20009;-84
2022/10/21 08:23:42;;;;;;;14.63;6.53;;;;;;;13.97;98.84;100594.63;6187219;23;20088;-85
2022/10/21 08:26:12;;;;;;;14.45;6.03;;;;;;;13.94;98.79;100603.50;6160904;23;20013;-84
2022/10/21 08:28:38;;;;;;;11.43;6.50;;;;;;;13.99;98.88;100614.09;6187235;23;20009;-85
2022/10/21 08:31:15;;;;;;;10.55;6.53;;;;;;;13.99;98.74;100616.75;6186817;23;20006;-85
2022/10/21 08:33:41;;;;;;;13.77;7.03;;;;;;;13.96;99.16;100635.34;6186853;23;20043;-85
2022/10/21 08:36:16;;;;;;;14.40;7.15;;;;;;;13.95;99.10;100639.78;6187182;23;20005;-84
2022/10/21 08:38:42;;;;;;;11.77;6.60;;;;;;;13.90;99.20;100619.47;6160434;23;20002;-85
2022/10/21 08:41:28;;;;;;;12.77;6.90;;;;;;;13.91;99.38;100626.53;6186548;23;20009;-85
2022/10/21 08:43:59;;;;;;;14.60;7.93;;;;;;;13.88;99.79;100632.75;6185882;23;20013;-85
2022/10/21 08:46:30;;;;;;;14.77;7.75;;;;;;;13.85;99.82;100631.91;6185940;23;20031;-84
2022/10/21 08:49:15;;;;;;;12.83;7.40;;;;;;;13.84;100.00;100633.66;6187197;23;20001;-84
2022/10/21 08:51:45;;;;;;;12.20;7.32;;;;;;;13.83;100.00;100633.66;6187781;23;20285;-86
2022/10/21 08:54:50;;;;;;;11.20;6.70;;;;;;;13.84;100.00;100640.75;6187050;23;20005;-85
2022/10/21 08:57:16;;;;;;;10.90;7.18;;;;;;;13.83;100.00;100644.28;6140195;23;20009;-85
2022/10/21 08:59:41;;;;;;;12.85;6.45;;;;;;;13.85;100.00;100640.75;6185331;23;20424;-85
2022/10/21 09:02:40;;;;;;;18.60;6.78;;;;;;;13.89;100.00;100642.50;6186919;23;20064;-85
2022/10/21 09:05:17;;;;;;;19.88;7.57;;;;;;;13.88;100.00;100653.13;6186005;23;20008;-85
2022/10/21 09:07:49;;;;;;;10.15;6.43;;;;;;;13.91;100.00;100646.00;6184885;23;20016;-85
2022/10/21 09:10:45;;;;;;;12.80;6.95;;;;;;;13.93;100.00;100652.22;6186905;23;20029;-85
2022/10/21 09:13:34;;;;;;;11.70;7.15;;;;;;;13.94;100.00;100655.75;6186462;23;20080;-85
2022/10/21 09:16:34;;;;;;;18.65;7.43;;;;;;;13.96;100.00;100652.19;6160466;23;20016;-85
2022/10/21 09:19:20;;;;;;;11.82;6.65;;;;;;;14.02;100.00;100654.78;6146570;23;20376;-85
2022/10/21 09:22:11;;;;;;;11.60;5.60;;;;;;;14.09;100.00;100644.13;6160378;23;20009;-85
2022/10/21 09:24:55;;;;;;;10.88;5.35;;;;;;;14.15;100.00;100642.31;6186147;23;20382;-85
2022/10/21 09:27:21;;;;;;;7.85;4.43;;;;;;;14.23;100.00;100621.88;6186974;23;20371;-86
2022/10/21 09:29:55;;;;;;;11.18;4.22;;;;;;;14.32;100.00;100620.03;6135697;23;20009;-86
2022/10/21 09:32:28;;;;;;;8.57;3.63;;;;;;;14.42;100.00;100625.25;6186681;23;20040;-86
2022/10/21 09:35:15;;;;;;;8.45;3.70;;;;;;;14.55;100.00;100635.81;6186633;23;20025;-85
2022/10/21 09:37:46;;;;;;;8.95;3.25;;;;;;;14.64;100.00;100633.06;6186029;23;20032;-85
2022/10/21 09:40:16;;;;;;;7.57;3.67;;;;;;;14.74;100.00;100648.94;6187307;23;20005;-85
2022/10/21 09:42:42;;;;;;;8.02;3.38;;;;;;;14.83;100.00;100644.44;6160498;23;20423;-85
2022/10/21 09:45:35;;;;;;;8.85;3.35;;;;;;;14.91;100.00;100640.81;6184935;23;20013;-85
2022/10/21 09:48:27;;;;;;;6.53;4.00;;;;;;;14.97;100.00;100634.53;6174397;23;20008;-85
2022/10/21 09:50:57;;;;;;;7.10;3.00;;;;;;;15.05;100.00;100634.44;6186932;23;20005;-85
2022/10/21 09:53:30;;;;;;;5.75;2.83;;;;;;;15.12;100.00;100631.72;6160748;23;20016;-85
2022/10/21 09:56:12;;;;;;;5.85;3.15;;;;;;;15.17;100.00;100645.84;6160277;23;20336;-85
2022/10/21 09:58:37;;;;;;;5.82;3.00;;;;;;;15.23;100.00;100635.09;6186380;23;20032;-85
2022/10/21 10:01:04;;;;;;;6.50;3.15;;;;;;;15.22;100.00;100628.03;6184780;23;20061;-85
2022/10/21 10:03:33;;;;;;;7.03;3.22;;;;;;;15.31;100.00;100651.00;6184428;23;20031;-86
2022/10/21 10:06:00;;;;;;;10.23;3.50;;;;;;;15.34;100.00;100650.09;6186312;23;20008;-85
2022/10/21 10:08:31;;;;;;;9.13;3.72;;;;;;;15.39;100.00;100656.25;6185436;23;20095;-85
2022/10/21 10:11:01;;;;;;;8.43;3.40;;;;;;;15.43;100.00;100665.94;6186345;23;20032;-85
2022/10/21 10:13:27;;;;;;;8.13;4.30;;;;;;;15.46;100.00;100655.25;6186632;23;20083;-85
2022/10/21 10:15:53;;;;;;;9.85;4.30;;;;;;;15.49;100.00;100653.44;6186209;23;20040;-86
2022/10/21 10:18:22;;;;;;;9.70;4.30;;;;;;;15.53;100.00;100655.16;6185794;23;20031;-87
2022/10/21 10:21:11;;;;;;;10.80;4.47;;;;;;;15.60;100.00;100658.63;6159518;23;20009;-85
2022/10/21 10:23:46;;;;;;;10.32;4.53;;;;;;;15.65;100.00;100663.94;6186954;23;20005;-85
2022/10/21 10:26:30;;;;;;;13.27;4.70;;;;;;;15.70;100.00;100665.63;6188847;23;20075;-85
2022/10/21 10:29:24;;;;;;;10.60;4.65;;;;;;;15.82;100.00;100666.38;6189528;23;20454;-86
2022/10/21 10:31:57;;;;;;;11.05;4.88;;;;;;;15.94;100.00;100661.75;6163034;23;20009;-85
2022/10/21 10:34:39;;;;;;;10.85;4.70;;;;;;;16.08;100.00;100672.22;6199711;23;20017;-86
2022/10/21 10:37:20;;;;;;;9.60;5.18;;;;;;;16.16;100.00;100661.44;6189807;23;20009;-85
2022/10/21 10:39:49;;;;;;;9.07;4.67;;;;;;;16.28;100.00;100667.47;6189239;23;20332;-86
2022/10/21 10:42:25;;;;;;;12.82;4.85;;;;;;;16.39;98.88;100663.75;6189467;23;20009;-86
2022/10/21 10:44:55;;;;;;;9.32;4.60;;;;;;;16.44;97.79;100656.53;6189406;23;20005;-85
2022/10/21 10:47:30;;;;;;;15.88;4.80;;;;;;;16.51;96.13;100661.75;6189415;23;20320;-85
2022/10/21 10:49:55;;;;;;;10.18;4.78;;;;;;;16.66;96.04;100662.38;6189299;23;20051;-86
2022/10/21 10:52:24;;;;;;;9.23;4.57;;;;;;;16.76;95.68;100669.38;6188698;23;20013;-86
2022/10/21 10:55:12;;;;;;;10.85;4.32;;;;;;;16.86;95.32;100668.31;6163060;23;20450;-86
2022/10/21 10:57:40;;;;;;;9.80;3.80;;;;;;;17.00;93.14;100660.94;6188944;23;20008;-86
2022/10/21 11:00:19;;;;;;;7.45;4.00;;;;;;;17.10;92.32;100668.78;6189119;23;20000;-86
2022/10/21 11:02:44;;;;;;;7.55;3.75;;;;;;;17.34;89.02;100662.06;6189134;23;20043;-86
2022/10/21 11:05:16;;;;;;;8.32;4.07;;;;;;;17.63;86.62;100654.31;6213505;23;20005;-85
2022/10/21 11:07:44;;;;;;;9.23;4.10;;;;;;;17.88;86.77;100656.50;6211614;23;20019;-86
2022/10/21 11:10:19;;;;;;;8.88;3.50;;;;;;;18.11;83.75;100653.28;6212859;23;20401;-85
2022/10/21 11:12:44;;;;;;;7.63;3.35;;;;;;;18.39;81.99;100642.81;6188987;23;20335;-85
2022/10/21 11:15:14;;;;;;;7.28;3.30;;;;;;;18.61;80.87;100646.72;6187552;23;20013;-85
2022/10/21 11:17:49;;;;;;;9.68;3.22;;;;;;;18.76;80.68;100632.09;6213687;23;20304;-85
2022/10/21 11:20:33;;;;;;;10.73;3.03;;;;;;;18.80;79.91;100627.53;6189046;23;20028;-85
2022/10/21 11:23:22;;;;;;;7.13;2.65;;;;;;;19.11;80.41;100630.28;6189695;23;20005;-86
2022/10/21 11:25:58;;;;;;;5.40;2.80;;;;;;;19.34;76.79;100629.59;6188922;23;20004;-85
2022/10/21 11:28:34;;;;;;;4.78;2.70;;;;;;;19.38;76.54;100636.63;6188952;23;20482;-85
2022/10/21 11:31:21;;;;;;;10.98;2.60;;;;;;;19.57;77.28;100637.88;6188043;23;20486;-85